sensor_id;sensor_type;location;lat;lon;timestamp;pressure;altitude;pressure_sealevel;temperature
41940;BMP180;23057;48.554;14.454;2023-01-01T00:01:29;94177.00;;;15.70
41940;BMP180;23057;48.554;14.454;2023-01-01T00:04:00;94206.00;;;15.60
41940;BMP180;23057;48.554;14.454;2023-01-01T00:06:31;94214.00;;;15.40
41940;BMP180;23057;48.554;14.454;2023-01-01T00:09:02;94217.00;;;15.10
41940;BMP180;23057;48.554;14.454;2023-01-01T00:11:52;94228.00;;;14.80
41940;BMP180;23057;48.554;14.454;2023-01-01T00:14:23;94219.00;;;14.70
41940;BMP180;23057;48.554;14.454;2023-01-01T00:16:54;94225.00;;;14.80
41940;BMP180;23057;48.554;14.454;2023-01-01T00:19:25;94230.00;;;14.90
41940;BMP180;23057;48.554;14.454;2023-01-01T00:21:56;94238.00;;;15.00
41940;BMP180;23057;48.554;14.454;2023-01-01T00:24:26;94237.00;;;15.10
41940;BMP180;23057;48.554;14.454;2023-01-01T00:26:57;94238.00;;;15.20
41940;BMP180;23057;48.554;14.454;2023-01-01T00:29:28;94243.00;;;15.30
41940;BMP180;23057;48.554;14.454;2023-01-01T00:31:58;94246.00;;;15.30
41940;BMP180;23057;48.554;14.454;2023-01-01T00:34:29;94240.00;;;15.30
41940;BMP180;23057;48.554;14.454;2023-01-01T00:37:00;94243.00;;;15.40
41940;BMP180;23057;48.554;14.454;2023-01-01T00:39:31;94253.00;;;15.50
41940;BMP180;23057;48.554;14.454;2023-01-01T00:42:01;94253.00;;;15.50
41940;BMP180;23057;48.554;14.454;2023-01-01T00:44:32;94240.00;;;15.50
41940;BMP180;23057;48.554;14.454;2023-01-01T00:47:03;94257.00;;;15.60
41940;BMP180;23057;48.554;14.454;2023-01-01T00:49:34;94258.00;;;15.60
41940;BMP180;23057;48.554;14.454;2023-01-01T00:52:04;94256.00;;;15.70
41940;BMP180;23057;48.554;14.454;2023-01-01T00:54:35;94260.00;;;15.80
41940;BMP180;23057;48.554;14.454;2023-01-01T00:57:06;94256.00;;;15.90
41940;BMP180;23057;48.554;14.454;2023-01-01T00:59:37;94252.00;;;16.00
41940;BMP180;23057;48.554;14.454;2023-01-01T01:02:07;94254.00;;;16.00
41940;BMP180;23057;48.554;14.454;2023-01-01T01:04:38;94255.00;;;15.90
41940;BMP180;23057;48.554;14.454;2023-01-01T01:07:09;94254.00;;;15.90
41940;BMP180;23057;48.554;14.454;2023-01-01T01:09:40;94256.00;;;15.90
41940;BMP180;23057;48.554;14.454;2023-01-01T01:12:10;94257.00;;;15.90
41940;BMP180;23057;48.554;14.454;2023-01-01T01:14:41;94264.00;;;15.90
41940;BMP180;23057;48.554;14.454;2023-01-01T01:17:12;94256.00;;;15.90
41940;BMP180;23057;48.554;14.454;2023-01-01T01:19:43;94263.00;;;15.80
41940;BMP180;23057;48.554;14.454;2023-01-01T01:22:13;94247.00;;;15.70
41940;BMP180;23057;48.554;14.454;2023-01-01T01:24:45;94245.00;;;15.70
41940;BMP180;23057;48.554;14.454;2023-01-01T01:27:16;94252.00;;;15.60
41940;BMP180;23057;48.554;14.454;2023-01-01T01:29:46;94253.00;;;15.60
41940;BMP180;23057;48.554;14.454;2023-01-01T01:32:17;94250.00;;;15.60
41940;BMP180;23057;48.554;14.454;2023-01-01T01:34:48;94250.00;;;15.50
41940;BMP180;23057;48.554;14.454;2023-01-01T01:37:19;94252.00;;;15.50
41940;BMP180;23057;48.554;14.454;2023-01-01T01:39:50;94253.00;;;15.50
41940;BMP180;23057;48.554;14.454;2023-01-01T01:42:21;94254.00;;;15.50
41940;BMP180;23057;48.554;14.454;2023-01-01T01:44:57;94257.00;;;15.50
41940;BMP180;23057;48.554;14.454;2023-01-01T01:53:22;94245.00;;;15.40
41940;BMP180;23057;48.554;14.454;2023-01-01T01:56:02;94239.00;;;15.40
41940;BMP180;23057;48.554;14.454;2023-01-01T01:58:36;94236.00;;;15.40
41940;BMP180;23057;48.554;14.454;2023-01-01T02:01:07;94240.00;;;15.40
41940;BMP180;23057;48.554;14.454;2023-01-01T02:03:56;94240.00;;;15.40
41940;BMP180;23057;48.554;14.454;2023-01-01T02:06:30;94238.00;;;15.40
41940;BMP180;23057;48.554;14.454;2023-01-01T02:09:03;94230.00;;;15.50
41940;BMP180;23057;48.554;14.454;2023-01-01T02:11:36;94240.00;;;15.50
41940;BMP180;23057;48.554;14.454;2023-01-01T02:14:07;94241.00;;;15.60
41940;BMP180;23057;48.554;14.454;2023-01-01T02:16:42;94251.00;;;15.60
41940;BMP180;23057;48.554;14.454;2023-01-01T02:22:54;94257.00;;;15.60
41940;BMP180;23057;48.554;14.454;2023-01-01T02:28:59;94272.00;;;15.40
41940;BMP180;23057;48.554;14.454;2023-01-01T02:31:41;94265.00;;;15.40
41940;BMP180;23057;48.554;14.454;2023-01-01T02:34:20;94270.00;;;15.50
41940;BMP180;23057;48.554;14.454;2023-01-01T02:36:57;94255.00;;;15.50
41940;BMP180;23057;48.554;14.454;2023-01-01T02:39:34;94254.00;;;15.50
41940;BMP180;23057;48.554;14.454;2023-01-01T02:42:08;94243.00;;;15.60
41940;BMP180;23057;48.554;14.454;2023-01-01T02:44:40;94244.00;;;15.60
41940;BMP180;23057;48.554;14.454;2023-01-01T02:47:17;94253.00;;;15.60
41940;BMP180;23057;48.554;14.454;2023-01-01T02:50:28;94253.00;;;15.60
41940;BMP180;23057;48.554;14.454;2023-01-01T02:53:20;94253.00;;;15.60
41940;BMP180;23057;48.554;14.454;2023-01-01T02:56:15;94256.00;;;15.60
41940;BMP180;23057;48.554;14.454;2023-01-01T03:02:28;94257.00;;;15.60
41940;BMP180;23057;48.554;14.454;2023-01-01T03:13:52;94255.00;;;15.70
41940;BMP180;23057;48.554;14.454;2023-01-01T03:16:30;94254.00;;;15.70
41940;BMP180;23057;48.554;14.454;2023-01-01T03:19:17;94253.00;;;15.70
41940;BMP180;23057;48.554;14.454;2023-01-01T03:21:58;94246.00;;;15.70
41940;BMP180;23057;48.554;14.454;2023-01-01T03:24:44;94252.00;;;15.60
41940;BMP180;23057;48.554;14.454;2023-01-01T03:27:23;94251.00;;;15.60
41940;BMP180;23057;48.554;14.454;2023-01-01T03:30:00;94252.00;;;15.60
41940;BMP180;23057;48.554;14.454;2023-01-01T03:32:39;94248.00;;;15.60
41940;BMP180;23057;48.554;14.454;2023-01-01T03:35:36;94246.00;;;15.50
41940;BMP180;23057;48.554;14.454;2023-01-01T03:38:17;94245.00;;;15.50
41940;BMP180;23057;48.554;14.454;2023-01-01T03:41:10;94247.00;;;15.50
41940;BMP180;23057;48.554;14.454;2023-01-01T03:46:29;94249.00;;;15.40
41940;BMP180;23057;48.554;14.454;2023-01-01T03:49:05;94259.00;;;15.40
41940;BMP180;23057;48.554;14.454;2023-01-01T03:55:24;94256.00;;;15.40
41940;BMP180;23057;48.554;14.454;2023-01-01T03:58:08;94251.00;;;15.40
41940;BMP180;23057;48.554;14.454;2023-01-01T04:00:55;94250.00;;;15.40
41940;BMP180;23057;48.554;14.454;2023-01-01T04:03:32;94252.00;;;15.40
41940;BMP180;23057;48.554;14.454;2023-01-01T04:06:08;94252.00;;;15.40
41940;BMP180;23057;48.554;14.454;2023-01-01T04:08:41;94255.00;;;15.40
41940;BMP180;23057;48.554;14.454;2023-01-01T04:11:17;94255.00;;;15.40
41940;BMP180;23057;48.554;14.454;2023-01-01T04:14:11;94248.00;;;15.30
41940;BMP180;23057;48.554;14.454;2023-01-01T04:16:41;94255.00;;;15.40
41940;BMP180;23057;48.554;14.454;2023-01-01T04:19:12;94250.00;;;15.40
41940;BMP180;23057;48.554;14.454;2023-01-01T04:21:43;94259.00;;;15.40
41940;BMP180;23057;48.554;14.454;2023-01-01T04:24:14;94258.00;;;15.50
41940;BMP180;23057;48.554;14.454;2023-01-01T04:26:45;94251.00;;;15.50
41940;BMP180;23057;48.554;14.454;2023-01-01T04:29:16;94256.00;;;15.50
41940;BMP180;23057;48.554;14.454;2023-01-01T04:31:48;94260.00;;;15.50
41940;BMP180;23057;48.554;14.454;2023-01-01T04:34:19;94267.00;;;15.50
41940;BMP180;23057;48.554;14.454;2023-01-01T04:36:50;94266.00;;;15.50
41940;BMP180;23057;48.554;14.454;2023-01-01T04:39:21;94267.00;;;15.50
41940;BMP180;23057;48.554;14.454;2023-01-01T04:41:52;94271.00;;;15.50
41940;BMP180;23057;48.554;14.454;2023-01-01T04:44:22;94273.00;;;15.50
41940;BMP180;23057;48.554;14.454;2023-01-01T04:46:53;94276.00;;;15.50
41940;BMP180;23057;48.554;14.454;2023-01-01T04:49:24;94282.00;;;15.40
41940;BMP180;23057;48.554;14.454;2023-01-01T04:51:54;94284.00;;;15.40
41940;BMP180;23057;48.554;14.454;2023-01-01T04:54:25;94277.00;;;15.40
41940;BMP180;23057;48.554;14.454;2023-01-01T04:56:56;94273.00;;;15.30
41940;BMP180;23057;48.554;14.454;2023-01-01T04:59:28;94284.00;;;15.30
41940;BMP180;23057;48.554;14.454;2023-01-01T05:02:00;94273.00;;;15.30
41940;BMP180;23057;48.554;14.454;2023-01-01T05:04:30;94280.00;;;15.30
41940;BMP180;23057;48.554;14.454;2023-01-01T05:07:01;94279.00;;;15.30
41940;BMP180;23057;48.554;14.454;2023-01-01T05:09:32;94285.00;;;15.20
41940;BMP180;23057;48.554;14.454;2023-01-01T05:12:03;94286.00;;;15.20
41940;BMP180;23057;48.554;14.454;2023-01-01T05:14:34;94284.00;;;15.20
41940;BMP180;23057;48.554;14.454;2023-01-01T05:17:04;94286.00;;;15.20
41940;BMP180;23057;48.554;14.454;2023-01-01T05:19:35;94295.00;;;15.20
41940;BMP180;23057;48.554;14.454;2023-01-01T05:22:06;94293.00;;;15.20
41940;BMP180;23057;48.554;14.454;2023-01-01T05:24:37;94290.00;;;15.10
41940;BMP180;23057;48.554;14.454;2023-01-01T05:27:07;94293.00;;;15.10
41940;BMP180;23057;48.554;14.454;2023-01-01T05:29:38;94291.00;;;15.00
41940;BMP180;23057;48.554;14.454;2023-01-01T05:32:09;94306.00;;;15.00
41940;BMP180;23057;48.554;14.454;2023-01-01T05:34:39;94305.00;;;14.90
41940;BMP180;23057;48.554;14.454;2023-01-01T05:37:10;94313.00;;;14.90
41940;BMP180;23057;48.554;14.454;2023-01-01T05:39:41;94314.00;;;14.80
41940;BMP180;23057;48.554;14.454;2023-01-01T05:42:11;94307.00;;;14.80
41940;BMP180;23057;48.554;14.454;2023-01-01T05:44:44;94313.00;;;14.80
41940;BMP180;23057;48.554;14.454;2023-01-01T05:47:15;94314.00;;;14.80
41940;BMP180;23057;48.554;14.454;2023-01-01T05:49:48;94319.00;;;14.80
41940;BMP180;23057;48.554;14.454;2023-01-01T05:52:18;94324.00;;;14.80
41940;BMP180;23057;48.554;14.454;2023-01-01T05:54:49;94327.00;;;14.80
41940;BMP180;23057;48.554;14.454;2023-01-01T05:57:20;94329.00;;;14.80
41940;BMP180;23057;48.554;14.454;2023-01-01T05:59:50;94321.00;;;14.70
41940;BMP180;23057;48.554;14.454;2023-01-01T06:02:21;94328.00;;;14.70
41940;BMP180;23057;48.554;14.454;2023-01-01T06:04:52;94341.00;;;14.70
41940;BMP180;23057;48.554;14.454;2023-01-01T06:07:23;94342.00;;;14.70
41940;BMP180;23057;48.554;14.454;2023-01-01T06:09:53;94353.00;;;14.60
41940;BMP180;23057;48.554;14.454;2023-01-01T06:12:24;94350.00;;;14.70
41940;BMP180;23057;48.554;14.454;2023-01-01T06:14:55;94339.00;;;14.70
41940;BMP180;23057;48.554;14.454;2023-01-01T06:17:26;94342.00;;;14.70
41940;BMP180;23057;48.554;14.454;2023-01-01T06:19:56;94353.00;;;14.70
41940;BMP180;23057;48.554;14.454;2023-01-01T06:22:27;94342.00;;;14.70
41940;BMP180;23057;48.554;14.454;2023-01-01T06:24:58;94341.00;;;14.70
41940;BMP180;23057;48.554;14.454;2023-01-01T06:27:28;94339.00;;;14.60
41940;BMP180;23057;48.554;14.454;2023-01-01T06:29:59;94346.00;;;14.60
41940;BMP180;23057;48.554;14.454;2023-01-01T06:32:30;94338.00;;;14.60
41940;BMP180;23057;48.554;14.454;2023-01-01T06:35:01;94343.00;;;14.50
41940;BMP180;23057;48.554;14.454;2023-01-01T06:37:32;94349.00;;;14.50
41940;BMP180;23057;48.554;14.454;2023-01-01T06:40:03;94343.00;;;14.50
41940;BMP180;23057;48.554;14.454;2023-01-01T06:42:34;94334.00;;;14.60
41940;BMP180;23057;48.554;14.454;2023-01-01T06:45:05;94342.00;;;14.60
41940;BMP180;23057;48.554;14.454;2023-01-01T06:47:36;94341.00;;;14.70
41940;BMP180;23057;48.554;14.454;2023-01-01T06:50:07;94350.00;;;14.70
41940;BMP180;23057;48.554;14.454;2023-01-01T06:52:38;94351.00;;;14.80
41940;BMP180;23057;48.554;14.454;2023-01-01T06:55:09;94350.00;;;14.90
41940;BMP180;23057;48.554;14.454;2023-01-01T06:57:40;94362.00;;;14.90
41940;BMP180;23057;48.554;14.454;2023-01-01T07:00:11;94363.00;;;14.90
41940;BMP180;23057;48.554;14.454;2023-01-01T07:02:42;94361.00;;;15.00
41940;BMP180;23057;48.554;14.454;2023-01-01T07:05:13;94358.00;;;15.00
41940;BMP180;23057;48.554;14.454;2023-01-01T07:07:44;94362.00;;;14.90
41940;BMP180;23057;48.554;14.454;2023-01-01T07:10:14;94366.00;;;14.90
41940;BMP180;23057;48.554;14.454;2023-01-01T07:12:45;94363.00;;;14.80
41940;BMP180;23057;48.554;14.454;2023-01-01T07:15:16;94374.00;;;14.80
41940;BMP180;23057;48.554;14.454;2023-01-01T07:17:47;94373.00;;;14.80
41940;BMP180;23057;48.554;14.454;2023-01-01T07:20:17;94367.00;;;14.80
41940;BMP180;23057;48.554;14.454;2023-01-01T07:22:48;94369.00;;;14.80
41940;BMP180;23057;48.554;14.454;2023-01-01T07:25:19;94370.00;;;14.80
41940;BMP180;23057;48.554;14.454;2023-01-01T07:27:50;94371.00;;;14.80
41940;BMP180;23057;48.554;14.454;2023-01-01T07:30:20;94372.00;;;14.70
41940;BMP180;23057;48.554;14.454;2023-01-01T07:32:54;94377.00;;;14.70
41940;BMP180;23057;48.554;14.454;2023-01-01T07:35:25;94374.00;;;14.70
41940;BMP180;23057;48.554;14.454;2023-01-01T07:37:56;94386.00;;;14.70
41940;BMP180;23057;48.554;14.454;2023-01-01T07:40:27;94389.00;;;14.80
41940;BMP180;23057;48.554;14.454;2023-01-01T07:42:58;94387.00;;;14.90
41940;BMP180;23057;48.554;14.454;2023-01-01T07:45:28;94392.00;;;14.90
41940;BMP180;23057;48.554;14.454;2023-01-01T07:48:00;94395.00;;;15.00
41940;BMP180;23057;48.554;14.454;2023-01-01T07:50:32;94403.00;;;15.10
41940;BMP180;23057;48.554;14.454;2023-01-01T07:53:03;94398.00;;;15.10
41940;BMP180;23057;48.554;14.454;2023-01-01T07:55:34;94391.00;;;15.00
41940;BMP180;23057;48.554;14.454;2023-01-01T07:58:05;94393.00;;;15.00
41940;BMP180;23057;48.554;14.454;2023-01-01T08:00:36;94406.00;;;15.00
41940;BMP180;23057;48.554;14.454;2023-01-01T08:03:08;94403.00;;;15.10
41940;BMP180;23057;48.554;14.454;2023-01-01T08:05:38;94406.00;;;15.20
41940;BMP180;23057;48.554;14.454;2023-01-01T08:08:10;94410.00;;;15.20
41940;BMP180;23057;48.554;14.454;2023-01-01T08:10:41;94407.00;;;15.20
41940;BMP180;23057;48.554;14.454;2023-01-01T08:13:12;94410.00;;;15.30
41940;BMP180;23057;48.554;14.454;2023-01-01T08:15:42;94412.00;;;15.20
41940;BMP180;23057;48.554;14.454;2023-01-01T08:18:13;94407.00;;;15.20
41940;BMP180;23057;48.554;14.454;2023-01-01T08:20:44;94416.00;;;15.20
41940;BMP180;23057;48.554;14.454;2023-01-01T08:23:15;94417.00;;;15.20
41940;BMP180;23057;48.554;14.454;2023-01-01T08:25:45;94410.00;;;15.40
41940;BMP180;23057;48.554;14.454;2023-01-01T08:28:16;94402.00;;;15.50
41940;BMP180;23057;48.554;14.454;2023-01-01T08:30:47;94408.00;;;15.60
41940;BMP180;23057;48.554;14.454;2023-01-01T08:33:17;94409.00;;;15.70
41940;BMP180;23057;48.554;14.454;2023-01-01T08:35:48;94410.00;;;15.80
41940;BMP180;23057;48.554;14.454;2023-01-01T08:38:19;94411.00;;;15.90
41940;BMP180;23057;48.554;14.454;2023-01-01T08:40:50;94402.00;;;16.10
41940;BMP180;23057;48.554;14.454;2023-01-01T08:43:21;94409.00;;;16.20
41940;BMP180;23057;48.554;14.454;2023-01-01T08:45:51;94419.00;;;16.30
41940;BMP180;23057;48.554;14.454;2023-01-01T08:48:22;94425.00;;;16.40
41940;BMP180;23057;48.554;14.454;2023-01-01T08:50:54;94422.00;;;16.50
41940;BMP180;23057;48.554;14.454;2023-01-01T08:53:29;94422.00;;;16.60
41940;BMP180;23057;48.554;14.454;2023-01-01T08:56:04;94425.00;;;16.70
41940;BMP180;23057;48.554;14.454;2023-01-01T08:58:37;94421.00;;;16.80
41940;BMP180;23057;48.554;14.454;2023-01-01T09:01:09;94425.00;;;16.80
41940;BMP180;23057;48.554;14.454;2023-01-01T09:03:41;94433.00;;;16.90
41940;BMP180;23057;48.554;14.454;2023-01-01T09:06:11;94429.00;;;17.00
41940;BMP180;23057;48.554;14.454;2023-01-01T09:08:43;94439.00;;;17.00
41940;BMP180;23057;48.554;14.454;2023-01-01T09:11:21;94440.00;;;17.10
41940;BMP180;23057;48.554;14.454;2023-01-01T09:13:54;94451.00;;;17.20
41940;BMP180;23057;48.554;14.454;2023-01-01T09:16:25;94454.00;;;17.20
41940;BMP180;23057;48.554;14.454;2023-01-01T09:18:56;94453.00;;;17.30
41940;BMP180;23057;48.554;14.454;2023-01-01T09:21:26;94465.00;;;17.30
41940;BMP180;23057;48.554;14.454;2023-01-01T09:23:57;94467.00;;;17.30
41940;BMP180;23057;48.554;14.454;2023-01-01T09:26:28;94466.00;;;17.40
41940;BMP180;23057;48.554;14.454;2023-01-01T09:28:58;94466.00;;;17.40
41940;BMP180;23057;48.554;14.454;2023-01-01T09:31:29;94464.00;;;17.50
41940;BMP180;23057;48.554;14.454;2023-01-01T09:34:00;94473.00;;;17.60
41940;BMP180;23057;48.554;14.454;2023-01-01T09:36:31;94465.00;;;17.70
41940;BMP180;23057;48.554;14.454;2023-01-01T09:39:03;94464.00;;;17.70
41940;BMP180;23057;48.554;14.454;2023-01-01T09:45:00;94466.00;;;17.90
41940;BMP180;23057;48.554;14.454;2023-01-01T09:47:39;94467.00;;;18.00
41940;BMP180;23057;48.554;14.454;2023-01-01T09:50:21;94466.00;;;18.00
41940;BMP180;23057;48.554;14.454;2023-01-01T09:53:09;94462.00;;;18.10
41940;BMP180;23057;48.554;14.454;2023-01-01T09:55:54;94468.00;;;18.20
41940;BMP180;23057;48.554;14.454;2023-01-01T09:58:35;94468.00;;;18.30
41940;BMP180;23057;48.554;14.454;2023-01-01T10:01:42;94464.00;;;18.40
41940;BMP180;23057;48.554;14.454;2023-01-01T10:04:24;94456.00;;;18.40
41940;BMP180;23057;48.554;14.454;2023-01-01T10:07:34;94457.00;;;18.50
41940;BMP180;23057;48.554;14.454;2023-01-01T10:10:35;94454.00;;;18.60
41940;BMP180;23057;48.554;14.454;2023-01-01T10:13:41;94458.00;;;18.70
41940;BMP180;23057;48.554;14.454;2023-01-01T10:18:54;94459.00;;;18.90
41940;BMP180;23057;48.554;14.454;2023-01-01T10:21:31;94457.00;;;19.00
41940;BMP180;23057;48.554;14.454;2023-01-01T10:24:33;94454.00;;;19.20
41940;BMP180;23057;48.554;14.454;2023-01-01T10:27:18;94450.00;;;19.30
41940;BMP180;23057;48.554;14.454;2023-01-01T10:29:56;94449.00;;;19.40
41940;BMP180;23057;48.554;14.454;2023-01-01T10:32:32;94447.00;;;19.60
41940;BMP180;23057;48.554;14.454;2023-01-01T10:35:16;94453.00;;;19.70
41940;BMP180;23057;48.554;14.454;2023-01-01T10:37:48;94448.00;;;19.80
41940;BMP180;23057;48.554;14.454;2023-01-01T10:40:23;94460.00;;;19.80
41940;BMP180;23057;48.554;14.454;2023-01-01T10:42:59;94454.00;;;19.90
41940;BMP180;23057;48.554;14.454;2023-01-01T10:45:33;94462.00;;;20.00
41940;BMP180;23057;48.554;14.454;2023-01-01T10:53:38;94460.00;;;20.40
41940;BMP180;23057;48.554;14.454;2023-01-01T10:56:13;94460.00;;;20.50
41940;BMP180;23057;48.554;14.454;2023-01-01T10:58:49;94467.00;;;20.60
41940;BMP180;23057;48.554;14.454;2023-01-01T11:01:25;94458.00;;;20.70
41940;BMP180;23057;48.554;14.454;2023-01-01T11:06:44;94456.00;;;20.90
41940;BMP180;23057;48.554;14.454;2023-01-01T11:09:29;94454.00;;;21.00
41940;BMP180;23057;48.554;14.454;2023-01-01T11:12:07;94455.00;;;21.10
41940;BMP180;23057;48.554;14.454;2023-01-01T11:14:53;94447.00;;;21.20
41940;BMP180;23057;48.554;14.454;2023-01-01T11:17:28;94443.00;;;21.20
41940;BMP180;23057;48.554;14.454;2023-01-01T11:20:02;94439.00;;;21.30
41940;BMP180;23057;48.554;14.454;2023-01-01T11:22:37;94435.00;;;21.40
41940;BMP180;23057;48.554;14.454;2023-01-01T11:25:26;94438.00;;;21.40
41940;BMP180;23057;48.554;14.454;2023-01-01T11:28:20;94432.00;;;21.50
41940;BMP180;23057;48.554;14.454;2023-01-01T11:33:49;94427.00;;;21.60
41940;BMP180;23057;48.554;14.454;2023-01-01T11:36:30;94420.00;;;21.70
41940;BMP180;23057;48.554;14.454;2023-01-01T11:39:22;94416.00;;;21.80
41940;BMP180;23057;48.554;14.454;2023-01-01T11:41:56;94414.00;;;21.90
41940;BMP180;23057;48.554;14.454;2023-01-01T11:44:40;94401.00;;;22.00
41940;BMP180;23057;48.554;14.454;2023-01-01T11:47:27;94397.00;;;22.00
41940;BMP180;23057;48.554;14.454;2023-01-01T11:50:05;94393.00;;;22.10
41940;BMP180;23057;48.554;14.454;2023-01-01T11:52:46;94395.00;;;22.10
41940;BMP180;23057;48.554;14.454;2023-01-01T11:55:38;94398.00;;;22.20
41940;BMP180;23057;48.554;14.454;2023-01-01T11:58:32;94411.00;;;22.30
41940;BMP180;23057;48.554;14.454;2023-01-01T12:01:20;94406.00;;;22.50
41940;BMP180;23057;48.554;14.454;2023-01-01T12:04:13;94382.00;;;22.50
41940;BMP180;23057;48.554;14.454;2023-01-01T12:06:54;94386.00;;;22.60
41940;BMP180;23057;48.554;14.454;2023-01-01T12:09:39;94388.00;;;22.60
41940;BMP180;23057;48.554;14.454;2023-01-01T12:12:26;94404.00;;;22.70
41940;BMP180;23057;48.554;14.454;2023-01-01T12:15:25;94397.00;;;22.80
41940;BMP180;23057;48.554;14.454;2023-01-01T12:20:58;94392.00;;;23.00
41940;BMP180;23057;48.554;14.454;2023-01-01T12:23:33;94398.00;;;23.00
41940;BMP180;23057;48.554;14.454;2023-01-01T12:38:44;94392.00;;;23.20
41940;BMP180;23057;48.554;14.454;2023-01-01T12:44:18;94380.00;;;23.30
41940;BMP180;23057;48.554;14.454;2023-01-01T12:47:31;94389.00;;;23.30
41940;BMP180;23057;48.554;14.454;2023-01-01T12:50:57;94385.00;;;23.40
41940;BMP180;23057;48.554;14.454;2023-01-01T12:53:51;94382.00;;;23.50
41940;BMP180;23057;48.554;14.454;2023-01-01T12:59:22;94388.00;;;23.60
41940;BMP180;23057;48.554;14.454;2023-01-01T13:02:11;94381.00;;;23.70
41940;BMP180;23057;48.554;14.454;2023-01-01T13:04:51;94381.00;;;23.80
41940;BMP180;23057;48.554;14.454;2023-01-01T13:07:30;94380.00;;;23.90
41940;BMP180;23057;48.554;14.454;2023-01-01T13:10:46;94382.00;;;24.00
41940;BMP180;23057;48.554;14.454;2023-01-01T13:13:20;94383.00;;;24.00
41940;BMP180;23057;48.554;14.454;2023-01-01T13:15:55;94387.00;;;24.00
41940;BMP180;23057;48.554;14.454;2023-01-01T13:18:33;94388.00;;;24.10
41940;BMP180;23057;48.554;14.454;2023-01-01T13:21:19;94397.00;;;24.10
41940;BMP180;23057;48.554;14.454;2023-01-01T13:23:53;94390.00;;;24.00
41940;BMP180;23057;48.554;14.454;2023-01-01T13:26:30;94392.00;;;24.00
41940;BMP180;23057;48.554;14.454;2023-01-01T13:40:02;94403.00;;;24.00
41940;BMP180;23057;48.554;14.454;2023-01-01T13:43:03;94402.00;;;23.90
41940;BMP180;23057;48.554;14.454;2023-01-01T13:45:37;94399.00;;;23.80
41940;BMP180;23057;48.554;14.454;2023-01-01T14:03:46;94434.00;;;23.30
41940;BMP180;23057;48.554;14.454;2023-01-01T14:06:30;94428.00;;;23.40
41940;BMP180;23057;48.554;14.454;2023-01-01T14:09:13;94423.00;;;23.30
41940;BMP180;23057;48.554;14.454;2023-01-01T14:11:45;94432.00;;;23.30
41940;BMP180;23057;48.554;14.454;2023-01-01T14:14:26;94438.00;;;23.20
41940;BMP180;23057;48.554;14.454;2023-01-01T14:17:00;94433.00;;;23.10
41940;BMP180;23057;48.554;14.454;2023-01-01T14:19:38;94442.00;;;23.00
41940;BMP180;23057;48.554;14.454;2023-01-01T14:22:14;94437.00;;;22.90
41940;BMP180;23057;48.554;14.454;2023-01-01T14:24:46;94433.00;;;22.90
41940;BMP180;23057;48.554;14.454;2023-01-01T14:27:19;94425.00;;;22.90
41940;BMP180;23057;48.554;14.454;2023-01-01T14:29:52;94435.00;;;22.90
41940;BMP180;23057;48.554;14.454;2023-01-01T14:32:24;94433.00;;;22.80
41940;BMP180;23057;48.554;14.454;2023-01-01T14:34:59;94426.00;;;22.80
41940;BMP180;23057;48.554;14.454;2023-01-01T14:37:31;94429.00;;;22.70
41940;BMP180;23057;48.554;14.454;2023-01-01T14:40:15;94432.00;;;22.50
41940;BMP180;23057;48.554;14.454;2023-01-01T14:42:53;94432.00;;;22.30
41940;BMP180;23057;48.554;14.454;2023-01-01T14:45:28;94428.00;;;22.20
41940;BMP180;23057;48.554;14.454;2023-01-01T14:48:02;94435.00;;;22.00
41940;BMP180;23057;48.554;14.454;2023-01-01T14:50:35;94425.00;;;21.80
41940;BMP180;23057;48.554;14.454;2023-01-01T14:53:10;94424.00;;;21.60
41940;BMP180;23057;48.554;14.454;2023-01-01T14:55:48;94428.00;;;21.50
41940;BMP180;23057;48.554;14.454;2023-01-01T14:58:25;94436.00;;;21.30
41940;BMP180;23057;48.554;14.454;2023-01-01T15:01:15;94433.00;;;21.20
41940;BMP180;23057;48.554;14.454;2023-01-01T15:04:05;94423.00;;;21.10
41940;BMP180;23057;48.554;14.454;2023-01-01T15:06:55;94427.00;;;21.10
41940;BMP180;23057;48.554;14.454;2023-01-01T15:09:29;94426.00;;;20.90
41940;BMP180;23057;48.554;14.454;2023-01-01T15:12:01;94428.00;;;20.90
41940;BMP180;23057;48.554;14.454;2023-01-01T15:14:36;94442.00;;;20.80
41940;BMP180;23057;48.554;14.454;2023-01-01T15:17:10;94435.00;;;20.70
41940;BMP180;23057;48.554;14.454;2023-01-01T15:19:58;94441.00;;;20.70
41940;BMP180;23057;48.554;14.454;2023-01-01T15:22:50;94438.00;;;20.60
41940;BMP180;23057;48.554;14.454;2023-01-01T15:25:22;94437.00;;;20.50
41940;BMP180;23057;48.554;14.454;2023-01-01T15:27:55;94442.00;;;20.30
41940;BMP180;23057;48.554;14.454;2023-01-01T15:30:31;94446.00;;;20.20
41940;BMP180;23057;48.554;14.454;2023-01-01T15:33:14;94445.00;;;20.20
41940;BMP180;23057;48.554;14.454;2023-01-01T15:35:50;94449.00;;;20.10
41940;BMP180;23057;48.554;14.454;2023-01-01T15:38:25;94444.00;;;20.00
41940;BMP180;23057;48.554;14.454;2023-01-01T15:44:32;94444.00;;;19.90
41940;BMP180;23057;48.554;14.454;2023-01-01T15:47:12;94452.00;;;19.80
41940;BMP180;23057;48.554;14.454;2023-01-01T15:49:44;94446.00;;;19.70
41940;BMP180;23057;48.554;14.454;2023-01-01T15:52:23;94441.00;;;19.60
41940;BMP180;23057;48.554;14.454;2023-01-01T15:54:59;94451.00;;;19.60
41940;BMP180;23057;48.554;14.454;2023-01-01T15:57:29;94457.00;;;19.50
41940;BMP180;23057;48.554;14.454;2023-01-01T16:00:00;94445.00;;;19.40
41940;BMP180;23057;48.554;14.454;2023-01-01T16:02:32;94452.00;;;19.40
41940;BMP180;23057;48.554;14.454;2023-01-01T16:05:13;94460.00;;;19.30
41940;BMP180;23057;48.554;14.454;2023-01-01T16:07:46;94469.00;;;19.20
41940;BMP180;23057;48.554;14.454;2023-01-01T16:10:17;94462.00;;;19.20
41940;BMP180;23057;48.554;14.454;2023-01-01T16:12:47;94464.00;;;19.10
41940;BMP180;23057;48.554;14.454;2023-01-01T16:15:18;94464.00;;;19.10
41940;BMP180;23057;48.554;14.454;2023-01-01T16:17:49;94458.00;;;19.00
41940;BMP180;23057;48.554;14.454;2023-01-01T16:20:20;94468.00;;;18.90
41940;BMP180;23057;48.554;14.454;2023-01-01T16:22:51;94476.00;;;18.80
41940;BMP180;23057;48.554;14.454;2023-01-01T16:25:22;94470.00;;;18.70